createdAt,value
2023-02-14T00:00:53.043Z,31.90
2023-02-14T00:03:27.525Z,31.80
2023-02-14T00:05:55.113Z,25.10
2023-02-14T00:08:22.736Z,29.90
2023-02-14T00:10:50.318Z,34.80
2023-02-14T00:13:17.856Z,37.20
2023-02-14T00:15:46.206Z,29.60
2023-02-14T00:18:13.925Z,28.90
2023-02-14T00:20:41.607Z,27.00
2023-02-14T00:23:09.265Z,33.30
2023-02-14T00:25:37.060Z,21.50
2023-02-14T00:28:04.680Z,26.40
2023-02-14T00:30:32.596Z,28.60
2023-02-14T00:33:00.233Z,24.50
2023-02-14T00:35:27.990Z,28.10
2023-02-14T00:37:55.597Z,27.90
2023-02-14T00:40:23.299Z,30.70
2023-02-14T00:42:50.916Z,28.90
2023-02-14T00:45:18.668Z,25.90
2023-02-14T00:47:46.227Z,20.90
2023-02-14T00:50:13.948Z,33.70
2023-02-14T00:52:41.592Z,29.30
2023-02-14T00:55:09.193Z,34.60
2023-02-14T00:57:37.146Z,27.50
2023-02-14T01:00:06.202Z,30.80
2023-02-14T01:02:33.806Z,27.80
2023-02-14T01:05:01.439Z,25.60
2023-02-14T01:07:29.134Z,24.20
2023-02-14T01:09:56.710Z,26.90
2023-02-14T01:12:24.259Z,26.20
2023-02-14T01:14:52.046Z,21.80
2023-02-14T01:17:19.668Z,25.70
2023-02-14T01:19:47.465Z,25.60
2023-02-14T01:22:15.173Z,29.20
2023-02-14T01:24:42.790Z,23.20
2023-02-14T01:27:10.472Z,27.10
2023-02-14T01:29:38.192Z,27.20
2023-02-14T01:32:05.869Z,25.00
2023-02-14T01:34:33.652Z,25.20
2023-02-14T01:37:01.427Z,23.10
2023-02-14T01:39:29.075Z,29.00
2023-02-14T01:41:56.773Z,28.80
2023-02-14T01:44:36.613Z,26.90
2023-02-14T01:47:09.864Z,26.10
2023-02-14T01:49:43.417Z,23.10
2023-02-14T01:52:22.054Z,24.80
2023-02-14T01:54:55.216Z,27.20
2023-02-14T01:57:28.594Z,28.60
2023-02-14T01:59:59.911Z,29.40
2023-02-14T02:02:27.687Z,33.40
2023-02-14T02:04:56.461Z,21.60
2023-02-14T02:07:26.687Z,29.70
2023-02-14T02:10:00.453Z,29.90
2023-02-14T02:12:30.694Z,27.30
2023-02-14T02:15:00.078Z,28.40
2023-02-14T02:17:40.076Z,29.00
2023-02-14T02:20:35.162Z,19.80
2023-02-14T02:23:53.823Z,23.00
2023-02-14T02:26:39.909Z,27.90
2023-02-14T02:29:26.021Z,23.30
2023-02-14T02:31:59.457Z,24.30
2023-02-14T02:35:12.391Z,20.30
2023-02-14T02:38:04.687Z,25.10
2023-02-14T02:40:59.727Z,23.00
2023-02-14T02:43:48.407Z,31.50
2023-02-14T02:46:29.344Z,23.70
2023-02-14T02:48:56.950Z,27.30
2023-02-14T02:51:36.998Z,25.10
2023-02-14T02:54:20.045Z,24.80
2023-02-14T02:56:53.885Z,25.30
2023-02-14T02:59:26.026Z,19.80
2023-02-14T03:02:12.765Z,27.00
2023-02-14T03:04:47.242Z,27.50
2023-02-14T03:07:14.900Z,29.20
2023-02-14T03:09:42.471Z,26.90
2023-02-14T03:12:34.850Z,33.10
2023-02-14T03:15:18.842Z,27.90
2023-02-14T03:18:09.268Z,26.40
2023-02-14T03:20:49.630Z,28.20
2023-02-14T03:23:33.843Z,23.40
2023-02-14T03:26:18.134Z,28.80
2023-02-14T03:28:47.975Z,25.30
2023-02-14T03:31:34.289Z,27.00
2023-02-14T03:34:15.915Z,29.10
2023-02-14T03:36:59.101Z,28.70
2023-02-14T03:39:37.635Z,18.80
2023-02-14T03:42:18.057Z,21.20
2023-02-14T03:44:48.489Z,21.80
2023-02-14T03:50:00.562Z,21.70
2023-02-14T03:52:30.068Z,26.80
2023-02-14T03:55:01.213Z,25.10
2023-02-14T03:57:35.543Z,22.60
2023-02-14T04:00:05.229Z,21.50
2023-02-14T04:02:39.076Z,19.80
2023-02-14T04:05:15.888Z,21.80
2023-02-14T04:07:50.052Z,24.00
2023-02-14T04:10:18.992Z,22.70
2023-02-14T04:12:47.130Z,23.30
2023-02-14T04:15:16.111Z,23.10
2023-02-14T04:17:44.199Z,18.20
2023-02-14T04:20:12.135Z,27.70
2023-02-14T04:22:39.823Z,17.70
2023-02-14T04:25:07.703Z,17.10
2023-02-14T04:27:35.400Z,18.30
2023-02-14T04:30:03.616Z,22.20
2023-02-14T04:32:31.666Z,20.50
2023-02-14T04:34:59.331Z,23.60
2023-02-14T04:37:27.111Z,21.60
2023-02-14T04:39:54.704Z,21.30
2023-02-14T04:42:22.767Z,18.60
2023-02-14T04:44:50.407Z,15.60
2023-02-14T04:47:18.091Z,18.70
2023-02-14T04:49:45.700Z,20.10
2023-02-14T04:52:13.373Z,16.20
2023-02-14T04:54:41.021Z,19.00
2023-02-14T04:57:08.832Z,16.00
2023-02-14T04:59:36.399Z,21.70
2023-02-14T05:02:04.142Z,21.20
2023-02-14T05:04:31.961Z,20.30
2023-02-14T05:06:59.630Z,18.70
2023-02-14T05:09:27.491Z,25.30
2023-02-14T05:11:55.767Z,23.30
2023-02-14T05:14:23.508Z,30.30
2023-02-14T05:16:51.248Z,28.90
2023-02-14T05:19:18.916Z,29.40
2023-02-14T05:21:46.817Z,26.80
2023-02-14T05:24:14.836Z,29.00
2023-02-14T05:26:42.968Z,34.50
2023-02-14T05:29:10.658Z,28.50
2023-02-14T05:31:38.570Z,25.90
2023-02-14T05:34:06.300Z,30.20
2023-02-14T05:36:34.209Z,32.60
2023-02-14T05:39:02.039Z,38.60
2023-02-14T05:41:29.788Z,40.90
2023-02-14T05:43:57.607Z,41.90
2023-02-14T05:46:25.217Z,34.70
2023-02-14T05:48:52.829Z,39.00
2023-02-14T05:51:20.514Z,37.70
2023-02-14T05:53:48.274Z,42.70
2023-02-14T05:56:16.049Z,39.20
2023-02-14T05:58:44.046Z,36.00
2023-02-14T06:01:11.687Z,36.20
2023-02-14T06:03:39.211Z,32.50
2023-02-14T06:06:07.177Z,35.60
2023-02-14T06:08:34.829Z,35.50
2023-02-14T06:11:02.701Z,43.40
2023-02-14T06:13:30.670Z,29.70
2023-02-14T06:15:58.383Z,31.60
2023-02-14T06:18:25.968Z,34.80
2023-02-14T06:20:54.325Z,31.10
2023-02-14T06:23:21.980Z,31.20
2023-02-14T06:25:49.614Z,31.40
2023-02-14T06:28:17.238Z,25.70
2023-02-14T06:30:46.756Z,26.70
2023-02-14T06:33:14.745Z,27.40
2023-02-14T06:35:42.427Z,33.40
2023-02-14T06:38:10.082Z,30.20
2023-02-14T06:40:37.758Z,30.90
2023-02-14T06:43:05.382Z,32.60
2023-02-14T06:45:33.100Z,36.50
2023-02-14T06:48:00.712Z,35.70
2023-02-14T06:50:28.279Z,35.40
2023-02-14T06:52:56.022Z,30.70
2023-02-14T06:55:23.829Z,32.20
2023-02-14T06:57:51.391Z,45.30
2023-02-14T07:00:19.739Z,38.50
2023-02-14T07:02:47.552Z,42.90
2023-02-14T07:05:15.307Z,33.50
2023-02-14T07:07:42.942Z,43.60
2023-02-14T07:10:11.126Z,41.20
2023-02-14T07:12:39.019Z,48.20
2023-02-14T07:15:12.023Z,41.60
2023-02-14T07:17:40.032Z,48.70
2023-02-14T07:20:09.391Z,47.70
2023-02-14T07:22:37.627Z,39.10
2023-02-14T07:25:07.145Z,32.90
2023-02-14T07:27:34.738Z,45.80
2023-02-14T07:30:02.618Z,37.30
2023-02-14T07:32:30.340Z,35.90
2023-02-14T07:34:57.946Z,35.60
2023-02-14T07:37:25.650Z,39.30
2023-02-14T07:39:53.231Z,34.50
2023-02-14T07:42:21.051Z,30.30
2023-02-14T07:44:48.583Z,22.50
2023-02-14T07:47:16.265Z,32.90
2023-02-14T07:49:43.965Z,31.40
2023-02-14T07:52:11.640Z,29.30
2023-02-14T07:54:39.247Z,26.60
2023-02-14T07:57:06.990Z,26.00
2023-02-14T07:59:34.801Z,29.90
2023-02-14T08:02:02.671Z,18.30
2023-02-14T08:04:32.222Z,21.30
2023-02-14T08:07:01.279Z,21.70
2023-02-14T08:09:29.164Z,24.60
2023-02-14T08:11:58.734Z,24.10
2023-02-14T08:14:26.384Z,20.20
2023-02-14T08:16:54.006Z,20.20
2023-02-14T08:19:21.582Z,21.60
2023-02-14T08:21:49.161Z,22.30
2023-02-14T08:24:16.767Z,15.20
2023-02-14T08:26:44.428Z,20.90
2023-02-14T08:29:12.067Z,15.20
2023-02-14T08:31:40.015Z,19.30
2023-02-14T08:34:07.764Z,20.50
2023-02-14T08:36:35.682Z,18.90
2023-02-14T08:39:05.034Z,20.90
2023-02-14T08:41:33.622Z,17.50
2023-02-14T08:44:01.596Z,13.70
2023-02-14T08:46:29.536Z,17.90
2023-02-14T08:48:57.213Z,14.60
2023-02-14T08:51:24.908Z,18.80
2023-02-14T08:53:52.716Z,22.10
2023-02-14T08:56:20.450Z,18.00
2023-02-14T08:58:51.461Z,20.50
2023-02-14T09:01:19.428Z,17.00
2023-02-14T09:03:47.437Z,19.40
2023-02-14T09:06:16.932Z,16.90
2023-02-14T09:08:45.432Z,19.10
2023-02-14T09:11:17.187Z,18.70
2023-02-14T09:13:46.348Z,18.70
2023-02-14T09:16:15.787Z,22.40
2023-02-14T09:18:43.854Z,19.90
2023-02-14T09:21:14.074Z,17.10
2023-02-14T09:26:12.209Z,17.70
2023-02-14T09:28:40.450Z,15.50
2023-02-14T09:31:12.257Z,20.70
2023-02-14T09:33:40.693Z,18.00
2023-02-14T09:36:08.719Z,18.30
2023-02-14T09:38:36.418Z,17.70
2023-02-14T09:41:09.429Z,24.90
2023-02-14T09:43:51.212Z,22.90
2023-02-14T09:46:20.500Z,21.90
2023-02-14T09:48:49.880Z,21.50
2023-02-14T09:51:24.295Z,23.00
2023-02-14T09:54:00.508Z,16.80
2023-02-14T09:56:55.818Z,16.40
2023-02-14T09:59:29.091Z,20.70
2023-02-14T10:02:18.604Z,21.00
2023-02-14T10:05:11.121Z,16.50
2023-02-14T10:08:00.153Z,19.70
2023-02-14T10:10:39.601Z,19.00
2023-02-14T10:13:29.803Z,20.40
2023-02-14T10:16:03.975Z,17.10
2023-02-14T10:18:54.179Z,17.00
2023-02-14T10:21:27.307Z,17.20
2023-02-14T10:24:03.964Z,22.30
2023-02-14T10:26:40.365Z,20.80
2023-02-14T10:29:16.612Z,16.70
2023-02-14T10:31:57.911Z,17.10
2023-02-14T10:34:48.840Z,14.40
2023-02-14T10:37:35.536Z,15.50
2023-02-14T10:40:20.196Z,14.50
2023-02-14T10:43:02.493Z,11.90
2023-02-14T10:45:45.767Z,11.30
2023-02-14T10:48:19.428Z,11.00
2023-02-14T10:51:10.846Z,14.30
2023-02-14T10:53:47.456Z,13.40
2023-02-14T10:56:23.371Z,8.60
2023-02-14T10:58:54.321Z,10.60
2023-02-14T11:01:22.652Z,10.90
2023-02-14T11:03:50.429Z,12.50
2023-02-14T11:06:18.125Z,12.10
2023-02-14T11:08:45.966Z,12.40
2023-02-14T11:11:21.514Z,11.50
2023-02-14T11:13:49.103Z,9.20
2023-02-14T11:16:30.398Z,10.30
2023-02-14T11:19:14.856Z,10.20
2023-02-14T11:21:45.281Z,7.70
2023-02-14T11:24:25.945Z,9.20
2023-02-14T11:26:57.652Z,11.50
2023-02-14T11:29:27.175Z,10.10
2023-02-14T11:31:55.849Z,10.40
2023-02-14T11:34:34.367Z,10.20
2023-02-14T11:37:17.137Z,10.90
2023-02-14T11:39:44.904Z,13.70
2023-02-14T11:42:13.258Z,13.00
2023-02-14T11:44:55.331Z,15.70
2023-02-14T11:47:29.543Z,15.40
2023-02-14T11:50:02.492Z,12.10
2023-02-14T11:52:30.383Z,13.40
2023-02-14T11:54:59.255Z,17.70
2023-02-14T11:57:34.846Z,15.10
2023-02-14T12:00:12.030Z,14.80
2023-02-14T12:02:43.295Z,11.60
2023-02-14T12:05:26.988Z,12.00
2023-02-14T12:07:58.505Z,13.70
2023-02-14T12:10:27.641Z,11.30
2023-02-14T12:12:56.913Z,12.60
2023-02-14T12:15:35.104Z,10.90
2023-02-14T12:18:34.627Z,11.40
2023-02-14T12:21:20.543Z,10.20
2023-02-14T12:23:51.202Z,9.70
2023-02-14T12:26:36.933Z,12.20
2023-02-14T12:29:36.382Z,13.90
2023-02-14T12:32:23.454Z,11.50
2023-02-14T12:34:56.108Z,12.20
2023-02-14T12:37:40.757Z,10.30
2023-02-14T12:40:11.795Z,10.40
2023-02-14T12:43:08.518Z,11.10
2023-02-14T12:45:54.648Z,10.10
2023-02-14T12:48:34.986Z,11.20
2023-02-14T12:51:05.493Z,12.60
2023-02-14T12:53:45.637Z,14.40
2023-02-14T12:56:13.447Z,15.20
2023-02-14T12:59:16.272Z,10.20
2023-02-14T13:02:20.378Z,11.50
2023-02-14T13:04:58.603Z,10.20
2023-02-14T13:07:51.640Z,12.10
2023-02-14T13:10:35.834Z,13.40
2023-02-14T13:13:29.859Z,11.90
2023-02-14T13:16:34.870Z,10.30
2023-02-14T13:19:13.748Z,10.00
2023-02-14T13:21:43.366Z,12.00
2023-02-14T13:24:19.905Z,11.60
2023-02-14T13:26:56.285Z,8.60
2023-02-14T13:31:58.659Z,12.40
2023-02-14T13:34:33.913Z,11.50
2023-02-14T13:37:06.603Z,10.40
2023-02-14T13:39:38.896Z,9.50
2023-02-14T13:42:07.608Z,9.20
2023-02-14T13:44:50.872Z,10.40
2023-02-14T13:47:20.139Z,9.40
2023-02-14T13:50:00.498Z,9.60
2023-02-14T13:52:43.280Z,9.20
2023-02-14T13:55:28.416Z,8.40
2023-02-14T13:58:05.507Z,13.00
2023-02-14T14:00:42.897Z,13.00
2023-02-14T14:03:27.729Z,10.30
2023-02-14T14:06:09.721Z,11.70
2023-02-14T14:08:42.595Z,11.80
2023-02-14T14:11:33.876Z,14.00
2023-02-14T14:14:21.629Z,10.40
2023-02-14T14:17:00.149Z,12.30
2023-02-14T14:19:27.929Z,10.40
2023-02-14T14:22:08.461Z,10.80
2023-02-14T14:24:38.981Z,11.10
2023-02-14T14:27:23.940Z,11.90
2023-02-14T14:29:56.547Z,11.60
2023-02-14T14:32:30.681Z,11.50
2023-02-14T14:35:00.717Z,9.80
2023-02-14T14:37:34.744Z,12.70
2023-02-14T14:40:07.674Z,8.90
2023-02-14T14:42:40.261Z,9.40
2023-02-14T14:45:19.653Z,9.50
2023-02-14T14:47:48.788Z,12.80
2023-02-14T14:50:29.714Z,11.30
2023-02-14T14:53:02.866Z,11.10
2023-02-14T14:55:34.438Z,11.40
2023-02-14T14:58:06.957Z,13.60
2023-02-14T15:00:37.075Z,17.30
2023-02-14T15:05:42.691Z,15.10
2023-02-14T15:08:22.078Z,13.80
2023-02-14T15:11:00.365Z,11.10
2023-02-14T15:13:41.816Z,12.90
2023-02-14T15:16:09.479Z,12.60
2023-02-14T15:18:37.214Z,15.60
2023-02-14T15:21:07.472Z,14.80
2023-02-14T15:23:35.257Z,15.00
2023-02-14T15:26:03.085Z,17.50
2023-02-14T15:28:35.475Z,14.00
2023-02-14T15:31:05.830Z,10.20
2023-02-14T15:33:34.712Z,18.40
2023-02-14T15:36:06.831Z,18.20
2023-02-14T15:38:40.874Z,18.20
2023-02-14T15:41:09.713Z,14.30
2023-02-14T15:43:37.405Z,12.20
2023-02-14T15:46:17.299Z,10.50
2023-02-14T15:48:46.017Z,10.50
2023-02-14T15:51:21.312Z,14.80
2023-02-14T15:53:53.547Z,16.90
2023-02-14T15:56:25.461Z,13.90
2023-02-14T15:58:59.536Z,16.90
2023-02-14T16:01:28.248Z,28.30
2023-02-14T16:03:59.590Z,18.50
2023-02-14T16:06:39.945Z,25.50
2023-02-14T16:09:24.535Z,16.40
2023-02-14T16:11:52.189Z,16.90
2023-02-14T16:14:35.111Z,12.60
2023-02-14T16:17:05.965Z,8.00
2023-02-14T16:19:44.641Z,14.30
2023-02-14T16:22:26.046Z,13.90
2023-02-14T16:24:53.653Z,13.50
2023-02-14T16:27:21.644Z,11.60
2023-02-14T16:29:49.410Z,14.00
2023-02-14T16:32:21.531Z,13.20
2023-02-14T16:34:49.814Z,15.10
2023-02-14T16:37:22.008Z,14.20
2023-02-14T16:39:54.744Z,12.00
2023-02-14T16:42:22.825Z,13.80
2023-02-14T16:44:50.995Z,15.70
2023-02-14T16:47:20.707Z,20.00
2023-02-14T16:49:48.522Z,13.70
2023-02-14T16:52:20.693Z,17.80
2023-02-14T16:54:50.024Z,17.00
2023-02-14T16:57:27.822Z,16.60
2023-02-14T16:59:56.991Z,16.30
2023-02-14T17:02:25.111Z,16.40
2023-02-14T17:04:52.771Z,18.10
2023-02-14T17:07:21.147Z,19.40
2023-02-14T17:09:54.895Z,20.50
2023-02-14T17:12:30.691Z,21.30
2023-02-14T17:15:03.561Z,17.00
2023-02-14T17:17:31.766Z,19.60
2023-02-14T17:19:59.747Z,15.70
2023-02-14T17:22:27.320Z,14.20
2023-02-14T17:24:56.997Z,14.20
2023-02-14T17:27:24.901Z,15.00
2023-02-14T17:29:52.509Z,13.40
2023-02-14T17:32:20.580Z,16.80
2023-02-14T17:34:48.305Z,19.00
2023-02-14T17:37:16.720Z,18.40
2023-02-14T17:39:45.282Z,14.90
2023-02-14T17:42:14.044Z,16.10
2023-02-14T17:44:42.555Z,16.30
2023-02-14T17:47:10.168Z,20.60
2023-02-14T17:49:38.193Z,18.00
2023-02-14T17:52:06.624Z,20.00
2023-02-14T17:54:38.206Z,18.10
2023-02-14T17:57:06.141Z,16.80
2023-02-14T17:59:34.769Z,19.60
2023-02-14T18:02:02.495Z,18.80
2023-02-14T18:04:30.129Z,20.60
2023-02-14T18:06:57.795Z,22.80
2023-02-14T18:09:25.781Z,20.10
2023-02-14T18:11:53.909Z,23.20
2023-02-14T18:14:21.888Z,18.80
2023-02-14T18:16:49.661Z,20.60
2023-02-14T18:19:17.320Z,20.90
2023-02-14T18:21:45.772Z,15.20
2023-02-14T18:24:13.837Z,14.30
2023-02-14T18:26:43.216Z,18.20
2023-02-14T18:29:11.415Z,16.70
2023-02-14T18:31:41.916Z,18.30
2023-02-14T18:34:09.954Z,14.40
2023-02-14T18:36:39.774Z,15.80
2023-02-14T18:39:08.810Z,16.00
2023-02-14T18:41:36.751Z,16.70
2023-02-14T18:44:05.618Z,16.20
2023-02-14T18:46:35.755Z,18.00
2023-02-14T18:49:05.625Z,19.60
2023-02-14T18:51:36.222Z,16.30
2023-02-14T18:54:04.601Z,15.10
2023-02-14T18:56:35.317Z,15.20
2023-02-14T18:59:09.548Z,19.30
2023-02-14T19:01:44.000Z,14.50
2023-02-14T19:04:12.551Z,16.20
2023-02-14T19:06:42.014Z,14.80
2023-02-14T19:09:15.034Z,19.00
2023-02-14T19:11:44.128Z,18.50
2023-02-14T19:14:12.090Z,16.30
2023-02-14T19:16:45.871Z,14.60
2023-02-14T19:19:13.637Z,18.60
2023-02-14T19:21:41.384Z,19.80
2023-02-14T19:24:09.261Z,16.70
2023-02-14T19:26:39.159Z,20.20
2023-02-14T19:29:11.151Z,20.90
2023-02-14T19:31:42.025Z,22.90
2023-02-14T19:34:17.158Z,18.70
2023-02-14T19:36:45.922Z,24.10
2023-02-14T19:39:14.166Z,20.80
2023-02-14T19:41:42.040Z,22.40
2023-02-14T19:44:11.517Z,21.00
2023-02-14T19:46:40.121Z,23.30
2023-02-14T19:49:08.656Z,23.20
2023-02-14T19:51:36.513Z,21.80
2023-02-14T19:54:07.815Z,20.90
2023-02-14T19:56:39.258Z,22.80
2023-02-14T19:59:08.099Z,19.40
2023-02-14T20:01:38.600Z,27.70
2023-02-14T20:04:08.858Z,24.90
2023-02-14T20:06:38.164Z,24.40
2023-02-14T20:09:07.345Z,24.60
2023-02-14T20:11:43.853Z,23.00
2023-02-14T20:14:11.782Z,23.60
2023-02-14T20:16:39.971Z,26.50
2023-02-14T20:19:10.330Z,26.60
2023-02-14T20:24:06.809Z,21.30
2023-02-14T20:26:36.431Z,18.80
2023-02-14T20:29:05.846Z,20.90
2023-02-14T20:31:40.269Z,20.00
2023-02-14T20:34:08.844Z,23.40
2023-02-14T20:36:37.375Z,22.00
2023-02-14T20:39:08.190Z,24.70
2023-02-14T20:41:36.034Z,17.60
2023-02-14T20:44:22.103Z,17.70
2023-02-14T20:46:52.954Z,24.30
2023-02-14T20:49:22.955Z,26.10
2023-02-14T20:51:51.716Z,23.20
2023-02-14T20:54:21.106Z,25.70
2023-02-14T20:56:49.166Z,25.70
2023-02-14T20:59:17.370Z,24.60
2023-02-14T21:01:45.159Z,24.00
2023-02-14T21:04:12.786Z,26.30
2023-02-14T21:06:40.362Z,28.00
2023-02-14T21:09:07.954Z,33.20
2023-02-14T21:11:35.913Z,26.90
2023-02-14T21:14:03.528Z,24.90
2023-02-14T21:16:31.348Z,21.20
2023-02-14T21:18:59.865Z,21.70
2023-02-14T21:21:28.860Z,21.70
2023-02-14T21:23:56.769Z,16.70
2023-02-14T21:26:24.770Z,17.80
2023-02-14T21:28:52.633Z,25.90
2023-02-14T21:31:21.047Z,21.70
2023-02-14T21:33:50.552Z,22.80
2023-02-14T21:36:19.410Z,17.10
2023-02-14T21:38:50.924Z,16.90
2023-02-14T21:41:21.392Z,21.30
2023-02-14T21:43:50.755Z,20.60
2023-02-14T21:46:21.084Z,17.90
2023-02-14T21:51:16.682Z,16.70
2023-02-14T21:53:45.062Z,19.40
2023-02-14T21:56:16.435Z,24.40
2023-02-14T21:58:47.587Z,19.60
2023-02-14T22:01:28.022Z,14.40
2023-02-14T22:03:56.337Z,13.10
2023-02-14T22:06:26.065Z,13.30
2023-02-14T22:08:55.297Z,12.90
2023-02-14T22:11:24.681Z,16.10
2023-02-14T22:13:52.557Z,20.80
2023-02-14T22:16:22.543Z,17.60
2023-02-14T22:18:50.160Z,13.10
2023-02-14T22:21:20.653Z,14.30
2023-02-14T22:23:48.810Z,14.20
2023-02-14T22:26:17.955Z,14.60
2023-02-14T22:28:48.189Z,13.10
2023-02-14T22:31:17.609Z,17.20
2023-02-14T22:33:46.879Z,15.60
2023-02-14T22:36:14.925Z,18.00
2023-02-14T22:38:43.191Z,23.30
2023-02-14T22:41:13.521Z,21.70
2023-02-14T22:46:12.272Z,18.80
2023-02-14T22:48:41.069Z,26.50
2023-02-14T22:51:17.759Z,29.00
2023-02-14T22:56:17.253Z,22.50
2023-02-14T22:58:45.354Z,19.70
2023-02-14T23:01:18.974Z,19.10
2023-02-14T23:03:48.046Z,20.70
2023-02-14T23:06:15.784Z,17.60
2023-02-14T23:08:45.709Z,18.10
2023-02-14T23:11:16.424Z,16.90
2023-02-14T23:13:44.290Z,15.60
2023-02-14T23:16:11.900Z,17.30
2023-02-14T23:18:39.518Z,15.30
2023-02-14T23:21:13.691Z,18.20
2023-02-14T23:23:41.438Z,15.10
2023-02-14T23:26:09.045Z,13.50
2023-02-14T23:28:36.669Z,16.60
2023-02-14T23:31:04.445Z,15.50
2023-02-14T23:33:32.229Z,15.50
2023-02-14T23:36:03.796Z,15.10
2023-02-14T23:38:31.486Z,17.20
2023-02-14T23:41:08.763Z,18.00
2023-02-14T23:43:36.366Z,16.20
2023-02-14T23:46:04.301Z,20.30
2023-02-14T23:48:32.410Z,17.40
2023-02-14T23:51:00.351Z,18.60
2023-02-14T23:53:28.122Z,19.00
2023-02-14T23:56:01.063Z,20.30
2023-02-14T23:58:28.855Z,20.80
